Time;durP1;ratioP1;P1;durP2;ratioP2;P2;SDS_P1;SDS_P2;PMS_P1;PMS_P2;Temp;Humidity;BMP_temperature;BMP_pressure;BME280_temperature;BME280_humidity;BME280_pressure;Samples;Min_cycle;Max_cycle;Signal;HPM_P1;HPM_P2
2022/03/08 06:47:26;;;;;;;64.15;29.75;;;;;;;;;;4786120;29;20067;-92
2022/03/08 06:49:59;;;;;;;58.28;26.83;;;;;;;;;;4787181;30;20055;-89
2022/03/08 06:52:35;;;;;;;65.30;27.98;;;;;;;;;;4786613;30;20173;-93
2022/03/08 06:55:05;;;;;;;65.55;29.17;;;;;;;;;;4772121;30;20051;-90
2022/03/08 06:57:56;;;;;;;60.10;29.25;;;;;;;;;;4787806;29;20651;-89
2022/03/08 07:00:23;;;;;;;63.38;28.80;;;;;;;;;;4793677;29;20054;-93
2022/03/08 07:02:50;;;;;;;68.18;31.02;;;;;;;;;;4795676;29;20059;-92
2022/03/08 07:05:17;;;;;;;58.55;29.10;;;;;;;;;;4781961;30;20055;-92
2022/03/08 07:07:43;;;;;;;60.08;29.88;;;;;;;;;;4797793;29;20800;-90
2022/03/08 07:10:17;;;;;;;65.25;26.67;;;;;;;;;;4789096;30;20142;-88
2022/03/08 07:12:44;;;;;;;55.10;27.20;;;;;;;;;;4790400;29;20055;-91
2022/03/08 07:15:17;;;;;;;61.50;29.20;;;;;;;;;;4790653;30;20051;-94
2022/03/08 07:17:47;;;;;;;66.20;28.77;;;;;;;;;;4788917;29;20054;-95
2022/03/08 07:20:14;;;;;;;63.53;29.67;;;;;;;;;;4779678;30;20527;-91
2022/03/08 07:22:41;;;;;;;64.47;28.90;;;;;;;;;;4791136;30;20513;-93
2022/03/08 07:25:11;;;;;;;70.20;30.27;;;;;;;;;;4771341;30;20466;-93
2022/03/08 07:27:38;;;;;;;63.10;27.70;;;;;;;;;;4771730;30;20079;-92
2022/03/08 07:30:11;;;;;;;75.28;29.05;;;;;;;;;;4784817;30;20070;-91
2022/03/08 07:33:06;;;;;;;70.53;29.05;;;;;;;;;;4793459;30;20059;-92
2022/03/08 07:35:54;;;;;;;60.38;28.02;;;;;;;;;;4765820;30;20048;-93
2022/03/08 07:38:21;;;;;;;65.97;28.42;;;;;;;;;;4788101;30;20108;-89
2022/03/08 07:40:56;;;;;;;61.42;25.92;;;;;;;;;;4788323;29;20152;-91
2022/03/08 07:43:27;;;;;;;63.08;27.40;;;;;;;;;;4771157;29;20078;-93
2022/03/08 07:56:58;;;;;;;57.75;20.80;;;;;;;;;;4658053;30;20185;-95
2022/03/08 08:00:49;;;;;;;66.60;21.60;;;;;;;;;;4726076;30;20064;-95
2022/03/08 08:17:12;;;;;;;19.17;6.03;;;;;;;;;;6075241;22;1453762;-88
2022/03/08 08:19:42;;;;;;;16.70;6.30;;;;;;;;;;6111524;23;20858;-88
2022/03/08 08:22:13;;;;;;;22.83;7.70;;;;;;;;;;6085500;23;20607;-90
2022/03/08 08:24:58;;;;;;;20.95;6.68;;;;;;;;;;6076771;23;20018;-90
2022/03/08 08:27:34;;;;;;;24.25;7.18;;;;;;;;;;6123133;23;20057;-89
2022/03/08 08:30:21;;;;;;;19.58;6.95;;;;;;;;;;6125950;23;20026;-89
2022/03/08 08:32:50;;;;;;;19.60;6.38;;;;;;;;;;6084153;23;20081;-91
2022/03/08 08:35:18;;;;;;;17.25;6.00;;;;;;;;;;6111325;23;20006;-90
2022/03/08 08:37:47;;;;;;;14.35;6.80;;;;;;;;;;6121403;23;20022;-91
2022/03/08 08:40:14;;;;;;;18.40;6.60;;;;;;;;;;6098462;23;20018;-90
2022/03/08 08:42:44;;;;;;;12.77;6.50;;;;;;;;;;6074730;23;20025;-89
2022/03/08 08:45:13;;;;;;;18.67;6.32;;;;;;;;;;6105280;23;20097;-88
2022/03/08 08:47:44;;;;;;;14.02;6.28;;;;;;;;;;6106595;23;20022;-91
2022/03/08 08:50:14;;;;;;;21.00;8.10;;;;;;;;;;6096020;23;20022;-89
2022/03/08 08:52:41;;;;;;;25.75;6.78;;;;;;;;;;6082038;23;20013;-92
2022/03/08 08:55:12;;;;;;;14.98;5.80;;;;;;;;;;6106433;23;20081;-92
2022/03/08 08:57:45;;;;;;;13.68;5.85;;;;;;;;;;6072192;23;20030;-92
2022/03/08 09:00:16;;;;;;;18.23;5.72;;;;;;;;;;6033655;23;20026;-89
2022/03/08 09:02:52;;;;;;;17.23;6.05;;;;;;;;;;6035609;23;20635;-91
2022/03/08 09:05:21;;;;;;;17.23;7.07;;;;;;;;;;6075923;23;20032;-90
2022/03/08 09:07:54;;;;;;;22.25;7.25;;;;;;;;;;6071493;23;20026;-90
2022/03/08 09:10:23;;;;;;;14.80;6.72;;;;;;;;;;6095555;23;20033;-90
2022/03/08 09:12:51;;;;;;;12.85;6.22;;;;;;;;;;6097315;23;20033;-90
2022/03/08 09:15:23;;;;;;;28.58;7.35;;;;;;;;;;6095505;23;20098;-90
2022/03/08 09:17:58;;;;;;;16.80;6.47;;;;;;;;;;6065797;23;20069;-89
2022/03/08 09:20:30;;;;;;;13.90;5.35;;;;;;;;;;6054951;23;20449;-89
2022/03/08 09:22:57;;;;;;;13.27;5.57;;;;;;;;;;6088986;23;20033;-88
2022/03/08 09:25:24;;;;;;;14.43;5.80;;;;;;;;;;6089175;23;20037;-87
2022/03/08 09:27:51;;;;;;;19.40;5.85;;;;;;;;;;6090021;23;20018;-87
2022/03/08 09:30:18;;;;;;;17.38;5.68;;;;;;;;;;6063543;23;20890;-86
2022/03/08 09:32:47;;;;;;;19.13;5.97;;;;;;;;;;6089506;23;20038;-88
2022/03/08 09:35:14;;;;;;;;;;;;;;;;;;6077724;23;20037;-88
2022/03/08 09:37:41;;;;;;;17.25;5.18;;;;;;;;;;6089543;23;20012;-88
2022/03/08 09:41:14;;;;;;;;;;;;;;;;;;;;;
2022/03/08 09:44:32;;;;;;;15.93;4.72;;;;;;;;;;5699523;24;20027;-91
2022/03/08 09:47:18;;;;;;;18.80;4.70;;;;;;;;;;5704526;24;20031;-89
2022/03/08 09:50:12;;;;;;;12.77;4.05;;;;;;;;;;5711413;24;20085;-89
2022/03/08 09:52:45;;;;;;;12.77;4.00;;;;;;;;;;5798398;24;20026;-86
2022/03/08 09:55:15;;;;;;;9.55;3.47;;;;;;;;;;5862339;24;20049;-89
2022/03/08 09:57:46;;;;;;;13.65;3.70;;;;;;;;;;5863092;24;20038;-89
2022/03/08 10:00:23;;;;;;;11.10;3.25;;;;;;;;;;5862368;24;20026;-89
2022/03/08 10:03:00;;;;;;;18.15;4.35;;;;;;;;;;5970943;23;20292;-88
2022/03/08 10:05:28;;;;;;;17.90;3.67;;;;;;;;;;5988173;23;20399;-87
2022/03/08 10:08:05;;;;;;;12.38;3.22;;;;;;;;;;5968570;23;20375;-88
2022/03/08 10:10:32;;;;;;;18.00;3.40;;;;;;;;;;5999676;23;20028;-84
2022/03/08 10:12:59;;;;;;;13.83;3.57;;;;;;;;;;6000619;23;20508;-87
2022/03/08 10:15:26;;;;;;;14.45;3.30;;;;;;;;;;5999860;23;20092;-84
2022/03/08 10:17:53;;;;;;;9.98;2.70;;;;;;;;;;6001751;23;20067;-84
2022/03/08 10:20:31;;;;;;;11.98;3.17;;;;;;;;;;6035089;23;20041;-85
2022/03/08 10:22:59;;;;;;;14.63;3.53;;;;;;;;;;6088914;23;20026;-83
2022/03/08 10:25:29;;;;;;;11.18;2.80;;;;;;;;;;6064062;23;20026;-85
2022/03/08 10:27:56;;;;;;;13.98;2.65;;;;;;;;;;6064668;23;20025;-84
2022/03/08 10:30:25;;;;;;;10.15;2.25;;;;;;;;;;6089734;23;20044;-86
2022/03/08 10:33:03;;;;;;;15.93;2.50;;;;;;;;;;6108436;23;20034;-84
2022/03/08 10:35:31;;;;;;;16.42;2.90;;;;;;;;;;6105983;23;20022;-84
2022/03/08 10:38:04;;;;;;;;;;;;;;;;;;6108955;23;20026;-85
2022/03/08 10:40:32;;;;;;;11.73;2.85;;;;;;;;;;6105007;23;19926;-85
2022/03/08 10:43:02;;;;;;;9.68;2.08;;;;;;;;;;6098474;23;20558;-85
2022/03/08 10:45:31;;;;;;;8.27;2.00;;;;;;;;;;6086027;23;20022;-84
2022/03/08 10:47:58;;;;;;;8.95;2.00;;;;;;;;;;6089900;23;20427;-82
2022/03/08 10:50:31;;;;;;;10.13;1.95;;;;;;;;;;6087956;23;20485;-87
2022/03/08 10:53:00;;;;;;;6.18;2.03;;;;;;;;;;6091359;23;20030;-86
2022/03/08 10:55:33;;;;;;;;;;;;;;;;;;6092241;23;20030;-86
2022/03/08 10:58:02;;;;;;;8.68;1.50;;;;;;;;;;6090456;23;19921;-86
2022/03/08 11:00:31;;;;;;;12.77;2.53;;;;;;;;;;6089541;23;20074;-84
2022/03/08 11:03:05;;;;;;;7.57;1.60;;;;;;;;;;6091005;23;20019;-86
2022/03/08 11:05:35;;;;;;;10.35;2.00;;;;;;;;;;6088316;23;20543;-86
2022/03/08 11:08:03;;;;;;;5.72;1.50;;;;;;;;;;6088031;23;20085;-86
2022/03/08 11:10:30;;;;;;;8.02;1.35;;;;;;;;;;6089361;23;20014;-86
2022/03/08 11:12:59;;;;;;;6.55;1.90;;;;;;;;;;6088589;23;20023;-88
2022/03/08 11:15:27;;;;;;;;;;;;;;;;;;6087911;23;20025;-86
2022/03/08 11:17:55;;;;;;;8.93;1.75;;;;;;;;;;6064285;23;20267;-87
2022/03/08 11:20:24;;;;;;;10.00;1.65;;;;;;;;;;6088250;23;20033;-87
2022/03/08 11:22:51;;;;;;;;;;;;;;;;;;6064129;23;20030;-87
2022/03/08 11:25:19;;;;;;;9.07;1.20;;;;;;;;;;6062804;23;19921;-88
2022/03/08 11:28:15;;;;;;;12.57;1.73;;;;;;;;;;6087697;23;20045;-83
2022/03/08 11:31:06;;;;;;;7.50;1.25;;;;;;;;;;6086290;23;20041;-85
2022/03/08 11:34:01;;;;;;;6.47;1.48;;;;;;;;;;6088315;23;20389;-83
2022/03/08 11:36:36;;;;;;;8.73;1.15;;;;;;;;;;6039926;23;20030;-84
2022/03/08 11:39:16;;;;;;;10.45;1.77;;;;;;;;;;6088589;23;20030;-83
2022/03/08 11:41:46;;;;;;;10.60;1.55;;;;;;;;;;6084073;23;20022;-84
2022/03/08 11:44:39;;;;;;;9.45;1.67;;;;;;;;;;6087398;23;20030;-83
2022/03/08 11:47:12;;;;;;;5.63;1.40;;;;;;;;;;5943236;24;20037;-84
2022/03/08 11:49:55;;;;;;;8.93;1.45;;;;;;;;;;5943734;24;20021;-83
2022/03/08 11:52:35;;;;;;;8.98;1.58;;;;;;;;;;5943248;24;20025;-85
2022/03/08 11:55:10;;;;;;;9.48;1.70;;;;;;;;;;5942210;24;20108;-84
2022/03/08 11:58:09;;;;;;;9.63;1.80;;;;;;;;;;5942022;24;20033;-85
2022/03/08 12:00:40;;;;;;;8.88;1.70;;;;;;;;;;5944336;24;20029;-85
2022/03/08 12:03:14;;;;;;;9.90;1.75;;;;;;;;;;5943013;24;20433;-85
2022/03/08 12:05:42;;;;;;;8.07;1.50;;;;;;;;;;5944160;24;20020;-84
2022/03/08 12:08:35;;;;;;;11.93;1.40;;;;;;;;;;5943944;24;20024;-83
2022/03/08 12:11:29;;;;;;;12.18;1.80;;;;;;;;;;5939812;24;20581;-82
2022/03/08 12:14:31;;;;;;;11.98;2.28;;;;;;;;;;5943325;24;20484;-84
2022/03/08 12:17:14;;;;;;;12.07;1.92;;;;;;;;;;5921097;24;20062;-84
2022/03/08 12:19:50;;;;;;;10.00;1.98;;;;;;;;;;5944372;24;20033;-85
2022/03/08 12:22:22;;;;;;;14.13;2.17;;;;;;;;;;5943895;24;20031;-85
2022/03/08 12:24:54;;;;;;;22.80;2.58;;;;;;;;;;6063676;23;20045;-85
2022/03/08 12:27:23;;;;;;;16.55;2.20;;;;;;;;;;6088108;23;20074;-85
2022/03/08 12:30:01;;;;;;;12.57;3.22;;;;;;;;;;6087389;23;20477;-85
2022/03/08 12:32:43;;;;;;;13.38;2.38;;;;;;;;;;6085842;23;20101;-84
2022/03/08 12:35:14;;;;;;;22.48;2.78;;;;;;;;;;6088196;23;20097;-84
2022/03/08 12:37:44;;;;;;;8.85;2.20;;;;;;;;;;6088008;23;20109;-85
2022/03/08 12:40:22;;;;;;;15.27;2.55;;;;;;;;;;6087355;23;20338;-85
2022/03/08 12:43:09;;;;;;;16.08;2.22;;;;;;;;;;6088325;23;20033;-86
2022/03/08 12:45:45;;;;;;;14.20;2.75;;;;;;;;;;6087345;23;20094;-84
2022/03/08 12:48:19;;;;;;;17.75;2.20;;;;;;;;;;6062570;23;20551;-84
2022/03/08 12:50:48;;;;;;;15.98;2.30;;;;;;;;;;6088863;23;20027;-83
2022/03/08 12:53:20;;;;;;;20.85;2.80;;;;;;;;;;6087765;23;20029;-82
2022/03/08 12:55:50;;;;;;;23.08;2.70;;;;;;;;;;6088955;23;20077;-83
2022/03/08 12:58:22;;;;;;;18.45;2.97;;;;;;;;;;6088244;23;20022;-85
2022/03/08 13:00:59;;;;;;;13.60;2.22;;;;;;;;;;6089197;23;20030;-84
2022/03/08 13:03:34;;;;;;;21.33;2.63;;;;;;;;;;6089388;23;20019;-84
2022/03/08 13:06:05;;;;;;;23.08;3.38;;;;;;;;;;6065074;23;20030;-84
2022/03/08 13:08:34;;;;;;;30.30;3.22;;;;;;;;;;6090304;23;20030;-84
2022/03/08 13:11:04;;;;;;;21.23;3.28;;;;;;;;;;6090122;23;20421;-84
2022/03/08 13:13:49;;;;;;;23.67;3.00;;;;;;;;;;6089253;23;20026;-85
2022/03/08 13:16:17;;;;;;;24.00;3.13;;;;;;;;;;6089210;23;20564;-85
2022/03/08 13:18:44;;;;;;;32.88;2.90;;;;;;;;;;6064555;23;20045;-85
2022/03/08 13:21:14;;;;;;;28.20;3.58;;;;;;;;;;6089426;23;20030;-85
2022/03/08 13:23:44;;;;;;;24.95;3.35;;;;;;;;;;6089933;23;20022;-84
2022/03/08 13:26:49;;;;;;;21.10;3.35;;;;;;;;;;6089739;23;20026;-84
2022/03/08 13:28:59;;;;;;;33.42;3.20;;;;;;;;;;6089589;23;20027;-85
2022/03/08 13:31:28;;;;;;;33.85;4.22;;;;;;;;;;6089498;23;20026;-84
2022/03/08 13:33:55;;;;;;;22.02;3.45;;;;;;;;;;6090298;23;20029;-85
2022/03/08 13:36:23;;;;;;;29.57;3.33;;;;;;;;;;6088990;23;20034;-84
2022/03/08 13:38:51;;;;;;;40.58;4.55;;;;;;;;;;6090354;23;20073;-86
2022/03/08 13:41:20;;;;;;;32.58;5.03;;;;;;;;;;6063989;23;20026;-85
2022/03/08 13:43:53;;;;;;;30.40;3.92;;;;;;;;;;6089314;23;20080;-85
2022/03/08 13:46:24;;;;;;;23.75;3.25;;;;;;;;;;6089640;23;20885;-85
2022/03/08 13:48:57;;;;;;;24.45;3.50;;;;;;;;;;6089577;23;20030;-84
2022/03/08 13:51:27;;;;;;;31.77;3.88;;;;;;;;;;6089519;23;20339;-84
2022/03/08 13:53:55;;;;;;;26.35;3.95;;;;;;;;;;6090044;23;20030;-83
2022/03/08 13:56:23;;;;;;;32.30;4.07;;;;;;;;;;6088455;23;20030;-84
2022/03/08 13:58:54;;;;;;;30.63;3.92;;;;;;;;;;6089312;23;20421;-84
2022/03/08 14:01:25;;;;;;;39.15;4.68;;;;;;;;;;6089601;23;20111;-86
2022/03/08 14:03:55;;;;;;;32.80;4.20;;;;;;;;;;6089268;23;20477;-85
2022/03/08 14:06:31;;;;;;;32.95;4.25;;;;;;;;;;6089428;23;20477;-85
2022/03/08 14:08:58;;;;;;;20.90;3.90;;;;;;;;;;6089690;23;20030;-85
2022/03/08 14:11:26;;;;;;;31.13;3.83;;;;;;;;;;6063869;23;20361;-83
2022/03/08 14:13:58;;;;;;;27.58;3.78;;;;;;;;;;6095296;23;20078;-86
2022/03/08 14:16:37;;;;;;;39.03;4.22;;;;;;;;;;6094549;23;20014;-87
2022/03/08 14:19:05;;;;;;;28.65;4.50;;;;;;;;;;6099526;23;20047;-83
2022/03/08 14:21:36;;;;;;;29.42;4.63;;;;;;;;;;6095346;23;20548;-88
2022/03/08 14:24:20;;;;;;;26.77;4.47;;;;;;;;;;6094595;23;20481;-83
2022/03/08 14:27:16;;;;;;;31.92;4.55;;;;;;;;;;6094649;23;20022;-87
2022/03/08 14:30:04;;;;;;;20.85;3.75;;;;;;;;;;6049962;23;20084;-87
2022/03/08 14:32:33;;;;;;;31.38;4.93;;;;;;;;;;6095305;23;20019;-87
2022/03/08 14:35:10;;;;;;;34.55;4.90;;;;;;;;;;6095031;23;20026;-87
2022/03/08 14:37:37;;;;;;;35.83;4.88;;;;;;;;;;6094704;23;20023;-87
2022/03/08 14:40:05;;;;;;;42.08;5.68;;;;;;;;;;6094942;23;20093;-88
2022/03/08 14:42:37;;;;;;;36.72;4.13;;;;;;;;;;6069432;23;20034;-87
2022/03/08 14:45:09;;;;;;;34.58;4.55;;;;;;;;;;6094673;23;20026;-87
2022/03/08 14:47:40;;;;;;;49.67;6.38;;;;;;;;;;6090835;23;20085;-86
2022/03/08 14:50:09;;;;;;;39.70;4.72;;;;;;;;;;6093453;23;20488;-89
2022/03/08 14:52:45;;;;;;;34.83;4.65;;;;;;;;;;6092348;23;20030;-91
2022/03/08 14:55:13;;;;;;;47.35;5.70;;;;;;;;;;6096755;23;20081;-87
2022/03/08 14:57:53;;;;;;;37.50;5.15;;;;;;;;;;6094820;23;20524;-84
2022/03/08 15:00:23;;;;;;;34.28;4.10;;;;;;;;;;6093863;23;20026;-84
2022/03/08 15:02:50;;;;;;;39.85;5.88;;;;;;;;;;6092931;23;20034;-85
2022/03/08 15:05:19;;;;;;;42.20;5.97;;;;;;;;;;6091052;23;20053;-88
2022/03/08 15:07:46;;;;;;;28.88;4.07;;;;;;;;;;6066963;23;20406;-88
2022/03/08 15:10:12;;;;;;;37.38;4.85;;;;;;;;;;6092196;23;20441;-88
2022/03/08 15:12:39;;;;;;;32.10;4.45;;;;;;;;;;6093401;23;20018;-87
2022/03/08 15:15:06;;;;;;;29.10;4.13;;;;;;;;;;6068001;23;20022;-85
2022/03/08 15:17:33;;;;;;;28.70;4.03;;;;;;;;;;6092734;23;20022;-85
2022/03/08 15:20:01;;;;;;;23.38;3.72;;;;;;;;;;6092995;23;20042;-84
2022/03/08 15:22:28;;;;;;;21.13;3.77;;;;;;;;;;6093975;23;20045;-84
2022/03/08 15:24:55;;;;;;;34.38;4.40;;;;;;;;;;6088494;23;20305;-86
2022/03/08 15:27:23;;;;;;;29.95;3.85;;;;;;;;;;6088027;23;20050;-85
2022/03/08 15:29:50;;;;;;;24.92;3.55;;;;;;;;;;6094471;23;20038;-85
2022/03/08 15:32:17;;;;;;;21.77;3.22;;;;;;;;;;6094111;23;20027;-85
2022/03/08 15:34:43;;;;;;;23.42;2.72;;;;;;;;;;6094403;23;20030;-85
2022/03/08 15:37:10;;;;;;;28.98;4.60;;;;;;;;;;6093693;23;20038;-85
2022/03/08 15:39:37;;;;;;;23.67;3.55;;;;;;;;;;6093795;23;20034;-85
2022/03/08 15:42:04;;;;;;;22.60;3.53;;;;;;;;;;6094898;23;20026;-87
2022/03/08 15:44:30;;;;;;;25.65;4.18;;;;;;;;;;6094176;23;20019;-86
2022/03/08 15:46:57;;;;;;;21.85;3.47;;;;;;;;;;6094332;23;20041;-86
2022/03/08 15:49:24;;;;;;;21.63;3.15;;;;;;;;;;6093754;23;20520;-86
2022/03/08 15:51:50;;;;;;;19.65;2.63;;;;;;;;;;6095075;23;20026;-86
2022/03/08 15:54:17;;;;;;;18.38;2.72;;;;;;;;;;6093517;23;20022;-87
2022/03/08 15:56:44;;;;;;;29.58;3.17;;;;;;;;;;6094105;23;20022;-86
2022/03/08 15:59:11;;;;;;;19.20;2.70;;;;;;;;;;6093987;23;20082;-87
2022/03/08 16:01:39;;;;;;;19.42;3.25;;;;;;;;;;6095013;23;20023;-87
2022/03/08 16:04:05;;;;;;;24.77;3.10;;;;;;;;;;6094357;23;20678;-87
2022/03/08 16:06:33;;;;;;;26.05;3.55;;;;;;;;;;6094784;23;20030;-87
2022/03/08 16:09:01;;;;;;;22.50;3.00;;;;;;;;;;6093611;23;20093;-88
2022/03/08 16:11:28;;;;;;;29.63;4.50;;;;;;;;;;6094202;23;20045;-86
2022/03/08 16:13:54;;;;;;;22.52;3.65;;;;;;;;;;6092746;23;20124;-86
2022/03/08 16:16:23;;;;;;;27.52;3.35;;;;;;;;;;6060623;23;20050;-87
2022/03/08 16:18:49;;;;;;;23.88;3.30;;;;;;;;;;6063705;23;20082;-87
2022/03/08 16:21:16;;;;;;;19.65;3.25;;;;;;;;;;6063268;23;20027;-89
2022/03/08 16:23:43;;;;;;;22.77;2.65;;;;;;;;;;6066592;23;20539;-88
2022/03/08 16:26:10;;;;;;;17.35;2.20;;;;;;;;;;6063798;23;20023;-88
2022/03/08 16:28:37;;;;;;;19.60;2.95;;;;;;;;;;6069078;23;20026;-89
2022/03/08 16:31:03;;;;;;;11.75;1.85;;;;;;;;;;6067385;23;20082;-89
2022/03/08 16:33:31;;;;;;;13.40;1.77;;;;;;;;;;6067693;23;20026;-87
2022/03/08 16:36:01;;;;;;;17.42;2.20;;;;;;;;;;6067415;23;20041;-87
2022/03/08 16:38:28;;;;;;;11.35;2.28;;;;;;;;;;6066846;23;20025;-87
2022/03/08 16:40:55;;;;;;;12.38;2.45;;;;;;;;;;6067143;23;20023;-87
2022/03/08 16:43:22;;;;;;;11.13;1.63;;;;;;;;;;6066994;23;20031;-87
2022/03/08 16:45:49;;;;;;;16.00;2.60;;;;;;;;;;6067041;23;20378;-87
2022/03/08 16:48:15;;;;;;;12.48;2.58;;;;;;;;;;6066394;23;20019;-87
2022/03/08 16:50:42;;;;;;;13.75;2.35;;;;;;;;;;6067295;23;20027;-87
2022/03/08 16:53:09;;;;;;;12.25;2.30;;;;;;;;;;6067138;23;20027;-87
2022/03/08 16:55:36;;;;;;;19.00;2.90;;;;;;;;;;6067670;23;20027;-86
2022/03/08 16:58:02;;;;;;;15.73;2.50;;;;;;;;;;6067591;23;20086;-86
2022/03/08 17:00:29;;;;;;;11.55;2.10;;;;;;;;;;6066798;23;20023;-87
2022/03/08 17:02:57;;;;;;;25.52;2.90;;;;;;;;;;6066406;23;20030;-86
2022/03/08 17:05:25;;;;;;;26.48;2.90;;;;;;;;;;6061786;23;20549;-87
2022/03/08 17:07:53;;;;;;;21.92;3.00;;;;;;;;;;6061122;23;20407;-87
2022/03/08 17:10:40;;;;;;;13.75;2.40;;;;;;;;;;6061251;23;20243;-87
2022/03/08 17:13:07;;;;;;;18.75;2.85;;;;;;;;;;6061952;23;20022;-87
2022/03/08 17:15:34;;;;;;;19.25;3.10;;;;;;;;;;6064458;23;20031;-88
2022/03/08 17:18:04;;;;;;;15.75;2.85;;;;;;;;;;6090343;23;20529;-89
2022/03/08 17:20:32;;;;;;;18.40;3.03;;;;;;;;;;6089530;23;20061;-88
2022/03/08 17:22:58;;;;;;;18.33;3.35;;;;;;;;;;6065097;23;20437;-89
2022/03/08 17:25:25;;;;;;;17.52;4.55;;;;;;;;;;6064811;23;20026;-90
2022/03/08 17:27:52;;;;;;;15.70;3.00;;;;;;;;;;6065912;23;20418;-91
2022/03/08 17:30:18;;;;;;;12.65;3.03;;;;;;;;;;6088983;23;20027;-89
2022/03/08 17:32:45;;;;;;;17.17;3.50;;;;;;;;;;6091704;23;20362;-90
2022/03/08 17:35:12;;;;;;;15.18;2.55;;;;;;;;;;6090207;23;20026;-89
2022/03/08 17:37:38;;;;;;;11.38;2.38;;;;;;;;;;6090392;23;20030;-88
2022/03/08 17:40:07;;;;;;;12.27;2.17;;;;;;;;;;6090257;23;20018;-84
2022/03/08 17:42:34;;;;;;;19.75;5.18;;;;;;;;;;6090563;23;20027;-90
2022/03/08 17:45:02;;;;;;;23.60;5.13;;;;;;;;;;6088876;23;20026;-89
2022/03/08 17:47:29;;;;;;;59.33;35.65;;;;;;;;;;6088995;23;20025;-90
2022/03/08 17:49:55;;;;;;;17.15;5.72;;;;;;;;;;6090300;23;20074;-90
2022/03/08 17:52:23;;;;;;;28.85;13.40;;;;;;;;;;6089834;23;20064;-90
2022/03/08 17:54:50;;;;;;;29.48;11.32;;;;;;;;;;6090326;23;20438;-90
2022/03/08 17:57:18;;;;;;;30.90;16.50;;;;;;;;;;6090059;23;20090;-91
2022/03/08 17:59:46;;;;;;;30.43;10.00;;;;;;;;;;6091384;23;20034;-92
2022/03/08 18:02:14;;;;;;;27.80;7.03;;;;;;;;;;6090903;23;20500;-92
2022/03/08 18:04:41;;;;;;;27.73;16.55;;;;;;;;;;6090401;23;20031;-89
2022/03/08 18:07:08;;;;;;;19.05;4.60;;;;;;;;;;6064474;23;20402;-90
2022/03/08 18:09:35;;;;;;;84.25;52.70;;;;;;;;;;6088755;23;20101;-86
2022/03/08 18:12:02;;;;;;;50.00;21.63;;;;;;;;;;6089148;23;20453;-86
2022/03/08 18:14:33;;;;;;;61.17;36.75;;;;;;;;;;6088757;23;20026;-87
2022/03/08 18:16:59;;;;;;;38.80;19.35;;;;;;;;;;6059396;23;20512;-87
2022/03/08 18:19:27;;;;;;;100.70;79.45;;;;;;;;;;6061649;23;20509;-91
2022/03/08 18:21:54;;;;;;;49.10;20.80;;;;;;;;;;6060599;23;20019;-88
2022/03/08 18:24:22;;;;;;;41.70;15.63;;;;;;;;;;6060271;23;20034;-87
2022/03/08 18:26:49;;;;;;;36.15;13.80;;;;;;;;;;6061728;23;20114;-88
2022/03/08 18:29:17;;;;;;;29.27;10.43;;;;;;;;;;6076037;23;20031;-84
2022/03/08 18:31:44;;;;;;;24.15;7.40;;;;;;;;;;6089286;23;20011;-88
2022/03/08 18:34:10;;;;;;;26.05;5.43;;;;;;;;;;6082561;23;20033;-86
2022/03/08 18:36:37;;;;;;;17.45;3.63;;;;;;;;;;6086239;23;20015;-88
2022/03/08 18:39:04;;;;;;;23.48;4.30;;;;;;;;;;6088299;23;20035;-87
2022/03/08 18:41:31;;;;;;;24.30;6.32;;;;;;;;;;6061910;23;20023;-89
2022/03/08 18:43:58;;;;;;;26.98;4.88;;;;;;;;;;6060127;23;20018;-88
2022/03/08 18:46:25;;;;;;;25.85;4.82;;;;;;;;;;6062952;23;20444;-88
2022/03/08 18:48:55;;;;;;;23.33;6.40;;;;;;;;;;6064583;23;20596;-88
2022/03/08 18:51:23;;;;;;;21.90;4.63;;;;;;;;;;6064307;23;20469;-89
2022/03/08 18:53:50;;;;;;;23.38;3.88;;;;;;;;;;6061923;23;20557;-87
2022/03/08 18:56:18;;;;;;;21.13;5.57;;;;;;;;;;6060044;23;20465;-85
2022/03/08 18:58:44;;;;;;;33.85;11.07;;;;;;;;;;6060496;23;20614;-85
2022/03/08 19:01:11;;;;;;;36.03;9.85;;;;;;;;;;6058934;23;20050;-86
2022/03/08 19:03:39;;;;;;;39.45;18.00;;;;;;;;;;6057244;23;20414;-86
2022/03/08 19:06:06;;;;;;;22.52;6.65;;;;;;;;;;6057897;23;20027;-86
2022/03/08 19:08:33;;;;;;;27.38;8.85;;;;;;;;;;6060357;23;20748;-87
2022/03/08 19:11:02;;;;;;;33.33;9.25;;;;;;;;;;6060049;23;20078;-87
2022/03/08 19:13:29;;;;;;;36.60;7.68;;;;;;;;;;6060054;23;20522;-87
2022/03/08 19:15:56;;;;;;;31.77;12.20;;;;;;;;;;6068074;23;20086;-87
2022/03/08 19:18:41;;;;;;;26.30;8.55;;;;;;;;;;6089613;23;20540;-87
2022/03/08 19:21:08;;;;;;;33.22;11.25;;;;;;;;;;6089772;23;20026;-86
2022/03/08 19:23:34;;;;;;;40.63;13.45;;;;;;;;;;6089411;23;20401;-84
2022/03/08 19:26:04;;;;;;;35.72;11.63;;;;;;;;;;6089172;23;20071;-84
2022/03/08 19:28:31;;;;;;;34.80;12.38;;;;;;;;;;6089448;23;20026;-85
2022/03/08 19:30:58;;;;;;;33.33;10.00;;;;;;;;;;6088811;23;20489;-85
2022/03/08 19:33:25;;;;;;;33.70;8.00;;;;;;;;;;6088921;23;20132;-84
2022/03/08 19:35:52;;;;;;;18.10;7.82;;;;;;;;;;6063708;23;20037;-84
2022/03/08 19:38:19;;;;;;;34.80;9.98;;;;;;;;;;6088648;23;20037;-83
2022/03/08 19:40:47;;;;;;;29.50;8.73;;;;;;;;;;6089478;23;20085;-84
2022/03/08 19:43:15;;;;;;;24.77;9.13;;;;;;;;;;6089194;23;20019;-85
2022/03/08 19:45:42;;;;;;;28.70;9.85;;;;;;;;;;6089524;23;20031;-85
2022/03/08 19:48:12;;;;;;;21.30;8.43;;;;;;;;;;6087492;23;20029;-84
2022/03/08 19:50:39;;;;;;;27.25;9.43;;;;;;;;;;6088715;23;20380;-85
2022/03/08 19:53:06;;;;;;;39.05;12.50;;;;;;;;;;6088173;23;20419;-87
2022/03/08 19:55:33;;;;;;;29.17;11.57;;;;;;;;;;6063922;23;20034;-84
2022/03/08 19:58:00;;;;;;;24.25;8.93;;;;;;;;;;6089439;23;20027;-86
2022/03/08 20:00:27;;;;;;;32.65;7.72;;;;;;;;;;6088033;23;20077;-85
2022/03/08 20:02:54;;;;;;;31.70;5.95;;;;;;;;;;6088592;23;20078;-84
2022/03/08 20:05:21;;;;;;;30.38;6.97;;;;;;;;;;6087315;23;20034;-82
2022/03/08 20:07:48;;;;;;;27.95;6.47;;;;;;;;;;6089005;23;20026;-82
2022/03/08 20:10:17;;;;;;;35.60;6.95;;;;;;;;;;6088353;23;20028;-82
2022/03/08 20:12:43;;;;;;;37.65;11.20;;;;;;;;;;6089329;23;20508;-84
2022/03/08 20:15:10;;;;;;;28.52;7.35;;;;;;;;;;6087763;23;20026;-82
2022/03/08 20:17:38;;;;;;;32.08;8.38;;;;;;;;;;6087199;23;20034;-82
2022/03/08 20:20:06;;;;;;;33.05;8.10;;;;;;;;;;6087757;23;20030;-83
2022/03/08 20:22:35;;;;;;;34.15;6.97;;;;;;;;;;6089983;23;20027;-83
2022/03/08 20:25:04;;;;;;;32.45;7.22;;;;;;;;;;6089096;23;20027;-83
2022/03/08 20:27:33;;;;;;;44.50;7.15;;;;;;;;;;6088370;23;20045;-81
2022/03/08 20:30:01;;;;;;;31.23;7.00;;;;;;;;;;6087745;23;20030;-82
2022/03/08 20:32:27;;;;;;;30.58;6.22;;;;;;;;;;6062301;23;20030;-82
2022/03/08 20:34:54;;;;;;;27.40;6.57;;;;;;;;;;6087755;23;20566;-82
2022/03/08 20:37:21;;;;;;;31.70;6.78;;;;;;;;;;6061971;23;20030;-83
2022/03/08 20:39:53;;;;;;;30.42;6.75;;;;;;;;;;6088245;23;20030;-83
2022/03/08 20:42:20;;;;;;;31.98;7.05;;;;;;;;;;6087480;23;20026;-84
2022/03/08 20:44:47;;;;;;;43.45;11.35;;;;;;;;;;6087160;23;20030;-84
2022/03/08 20:47:14;;;;;;;34.00;11.10;;;;;;;;;;6087197;23;20080;-82
2022/03/08 20:49:43;;;;;;;39.17;11.70;;;;;;;;;;6087373;23;20019;-82
2022/03/08 20:52:10;;;;;;;50.03;9.25;;;;;;;;;;6086683;23;20053;-83
2022/03/08 20:54:37;;;;;;;43.00;9.20;;;;;;;;;;6087450;23;20054;-82
2022/03/08 20:57:03;;;;;;;47.70;8.13;;;;;;;;;;6084447;23;20540;-81
2022/03/08 20:59:30;;;;;;;35.95;7.88;;;;;;;;;;6086699;23;20014;-82
2022/03/08 21:01:57;;;;;;;25.67;6.90;;;;;;;;;;6079883;23;20029;-82
2022/03/08 21:04:23;;;;;;;29.02;5.88;;;;;;;;;;6087639;23;20030;-82
2022/03/08 21:06:50;;;;;;;38.72;6.10;;;;;;;;;;6087779;23;20370;-82
2022/03/08 21:09:18;;;;;;;32.53;6.03;;;;;;;;;;6087905;23;20485;-81
2022/03/08 21:11:48;;;;;;;34.08;6.03;;;;;;;;;;6087511;23;20740;-82
2022/03/08 21:14:15;;;;;;;32.13;6.93;;;;;;;;;;6087977;23;20027;-84
2022/03/08 21:16:42;;;;;;;35.42;8.10;;;;;;;;;;6089564;23;20030;-84
2022/03/08 21:19:08;;;;;;;36.42;7.85;;;;;;;;;;6062878;23;20077;-84
2022/03/08 21:21:39;;;;;;;49.10;9.50;;;;;;;;;;6089131;23;20034;-84
2022/03/08 21:24:06;;;;;;;43.45;10.50;;;;;;;;;;6088856;23;20027;-84
2022/03/08 21:26:33;;;;;;;48.55;11.80;;;;;;;;;;6090432;23;20077;-83
2022/03/08 21:29:01;;;;;;;45.40;10.93;;;;;;;;;;6064610;23;20489;-84
2022/03/08 21:31:28;;;;;;;51.40;12.20;;;;;;;;;;6088988;23;20026;-84
2022/03/08 21:33:57;;;;;;;47.05;11.57;;;;;;;;;;6090506;23;20022;-81
2022/03/08 21:36:27;;;;;;;44.65;12.60;;;;;;;;;;6089297;23;20041;-82
2022/03/08 21:38:53;;;;;;;49.45;12.20;;;;;;;;;;6090591;23;20026;-82
2022/03/08 21:41:20;;;;;;;58.83;13.65;;;;;;;;;;6089374;23;20420;-82
2022/03/08 21:43:47;;;;;;;51.10;13.57;;;;;;;;;;6090477;23;20025;-83
2022/03/08 21:46:14;;;;;;;61.15;14.15;;;;;;;;;;6090273;23;20301;-83
2022/03/08 21:48:45;;;;;;;51.42;12.82;;;;;;;;;;6090418;23;20022;-83
2022/03/08 21:51:12;;;;;;;54.30;13.73;;;;;;;;;;6088863;23;20034;-84
2022/03/08 21:53:39;;;;;;;52.00;15.48;;;;;;;;;;6089653;23;20029;-84
2022/03/08 21:56:05;;;;;;;46.22;13.80;;;;;;;;;;6089611;23;20556;-85
2022/03/08 21:58:33;;;;;;;67.80;14.95;;;;;;;;;;6089666;23;20018;-83
2022/03/08 22:00:59;;;;;;;58.55;13.18;;;;;;;;;;6090049;23;20077;-83
2022/03/08 22:03:26;;;;;;;55.33;12.88;;;;;;;;;;6088988;23;20101;-83